Time;durP1;ratioP1;P1;durP2;ratioP2;P2;SDS_P1;SDS_P2;PMS_P1;PMS_P2;Temp;Humidity;BMP_temperature;BMP_pressure;BME280_temperature;BME280_humidity;BME280_pressure;Samples;Min_cycle;Max_cycle;Signal;HPM_P1;HPM_P2
2023/08/26 00:00:00;;;;;;;4.60;4.03;;;;;;;;;;4994310;28;20063;-87
2023/08/26 00:02:27;;;;;;;4.45;3.75;;;;;;;;;;4994342;28;20517;-87
2023/08/26 00:04:54;;;;;;;5.35;4.28;;;;;;;;;;4994115;28;20069;-86
2023/08/26 00:07:22;;;;;;;4.15;3.78;;;;;;;;;;4994069;28;20054;-86
2023/08/26 00:09:49;;;;;;;4.18;3.88;;;;;;;;;;4980791;28;20125;-86
2023/08/26 00:12:16;;;;;;;7.15;3.88;;;;;;;;;;4995292;28;20050;-87
2023/08/26 00:14:43;;;;;;;4.28;3.88;;;;;;;;;;4994047;28;20050;-87
2023/08/26 00:17:11;;;;;;;5.97;4.18;;;;;;;;;;4994910;28;20498;-87
2023/08/26 00:19:38;;;;;;;3.83;3.50;;;;;;;;;;4983149;28;20108;-86
2023/08/26 00:22:05;;;;;;;4.50;4.10;;;;;;;;;;4994114;28;20069;-87
2023/08/26 00:24:32;;;;;;;4.10;3.70;;;;;;;;;;4993940;28;20061;-87
2023/08/26 00:27:00;;;;;;;5.72;4.13;;;;;;;;;;4993878;28;20065;-87
2023/08/26 00:29:27;;;;;;;4.00;3.70;;;;;;;;;;4984751;28;20054;-87
2023/08/26 00:31:54;;;;;;;5.60;3.85;;;;;;;;;;4994409;28;20084;-86
2023/08/26 00:34:22;;;;;;;4.45;4.03;;;;;;;;;;4986800;28;20046;-86
2023/08/26 00:36:49;;;;;;;5.07;3.70;;;;;;;;;;4993459;28;20462;-86
2023/08/26 00:39:16;;;;;;;7.32;3.60;;;;;;;;;;4992678;28;20160;-87
2023/08/26 00:41:44;;;;;;;5.78;3.88;;;;;;;;;;4996253;28;20068;-87
2023/08/26 00:44:11;;;;;;;4.90;3.90;;;;;;;;;;5014274;28;20073;-87
2023/08/26 00:46:38;;;;;;;4.78;3.38;;;;;;;;;;4996832;28;20430;-87
2023/08/26 00:49:06;;;;;;;4.68;3.63;;;;;;;;;;5009997;28;20522;-87
2023/08/26 00:51:33;;;;;;;6.90;3.83;;;;;;;;;;4996934;28;20077;-86
2023/08/26 00:54:01;;;;;;;6.28;3.65;;;;;;;;;;4996580;28;20132;-86
2023/08/26 00:56:28;;;;;;;4.35;3.65;;;;;;;;;;4996663;28;20133;-86
2023/08/26 00:58:55;;;;;;;5.28;3.80;;;;;;;;;;4994432;28;20106;-85
2023/08/26 01:01:25;;;;;;;4.88;3.40;;;;;;;;;;4958050;28;20043;-87
2023/08/26 01:03:52;;;;;;;4.47;4.00;;;;;;;;;;4959619;28;20077;-86
2023/08/26 01:06:20;;;;;;;3.85;3.55;;;;;;;;;;4980754;28;20045;-87
2023/08/26 01:08:47;;;;;;;3.80;3.50;;;;;;;;;;4996253;28;20084;-86
2023/08/26 01:11:24;;;;;;;4.32;3.53;;;;;;;;;;4996696;28;20049;-91
2023/08/26 01:14:06;;;;;;;6.18;2.72;;;;;;;;;;4996187;28;20046;-87
2023/08/26 01:16:35;;;;;;;3.90;1.83;;;;;;;;;;5010159;28;20050;-87
2023/08/26 01:19:03;;;;;;;6.50;1.38;;;;;;;;;;4994210;28;20056;-87
2023/08/26 01:21:32;;;;;;;2.30;1.27;;;;;;;;;;4996288;28;20516;-87
2023/08/26 01:23:59;;;;;;;1.27;1.10;;;;;;;;;;4996677;28;20621;-87
2023/08/26 01:26:26;;;;;;;1.48;1.15;;;;;;;;;;4990282;28;20096;-87
2023/08/26 01:28:54;;;;;;;3.83;1.05;;;;;;;;;;4996435;28;20509;-88
2023/08/26 01:31:22;;;;;;;2.30;1.00;;;;;;;;;;4996401;28;20057;-87
2023/08/26 01:34:01;;;;;;;2.20;1.00;;;;;;;;;;4996343;28;20093;-87
2023/08/26 01:36:31;;;;;;;0.82;0.82;;;;;;;;;;4992987;28;20053;-87
2023/08/26 01:38:59;;;;;;;2.25;1.15;;;;;;;;;;4995866;28;20050;-87
2023/08/26 01:41:27;;;;;;;2.10;1.23;;;;;;;;;;4995827;28;20069;-87
2023/08/26 01:43:55;;;;;;;2.35;0.90;;;;;;;;;;5010736;28;20053;-87
2023/08/26 01:46:34;;;;;;;1.20;1.00;;;;;;;;;;4996030;28;20050;-86
2023/08/26 01:49:01;;;;;;;2.45;0.90;;;;;;;;;;4995872;28;20513;-87
2023/08/26 01:51:29;;;;;;;1.88;1.30;;;;;;;;;;4993201;28;20155;-86
2023/08/26 01:53:56;;;;;;;2.58;0.98;;;;;;;;;;4995865;28;20104;-87
2023/08/26 01:56:23;;;;;;;2.83;1.00;;;;;;;;;;4995591;28;20042;-86
2023/08/26 01:58:51;;;;;;;2.80;1.13;;;;;;;;;;4995810;28;20050;-87
2023/08/26 02:01:18;;;;;;;2.13;1.27;;;;;;;;;;4993499;28;20081;-87
2023/08/26 02:03:46;;;;;;;2.63;1.15;;;;;;;;;;5005474;28;20118;-87
2023/08/26 02:06:13;;;;;;;3.60;1.15;;;;;;;;;;4976159;28;20473;-86
2023/08/26 02:08:40;;;;;;;1.20;1.10;;;;;;;;;;4976017;28;20054;-86
2023/08/26 02:11:09;;;;;;;3.05;1.20;;;;;;;;;;4986822;28;20498;-86
2023/08/26 02:13:37;;;;;;;3.42;1.20;;;;;;;;;;4995581;28;20088;-86
2023/08/26 02:16:04;;;;;;;1.30;1.17;;;;;;;;;;5012710;28;20513;-86
2023/08/26 02:18:32;;;;;;;2.85;1.38;;;;;;;;;;4994371;28;20104;-86
2023/08/26 02:20:59;;;;;;;1.98;1.40;;;;;;;;;;4991511;28;20502;-86
2023/08/26 02:23:26;;;;;;;2.45;1.13;;;;;;;;;;4996250;28;20387;-86
2023/08/26 02:25:54;;;;;;;1.23;1.13;;;;;;;;;;4999306;28;20046;-87
2023/08/26 02:28:21;;;;;;;2.05;1.25;;;;;;;;;;4998216;28;20049;-87
2023/08/26 02:30:48;;;;;;;1.77;1.20;;;;;;;;;;4992242;28;20050;-87
2023/08/26 02:33:15;;;;;;;2.10;1.20;;;;;;;;;;4995038;28;20457;-86
2023/08/26 02:35:46;;;;;;;1.50;1.40;;;;;;;;;;4978388;28;20054;-86
2023/08/26 02:38:14;;;;;;;1.48;1.38;;;;;;;;;;4975858;28;20455;-86
2023/08/26 02:40:41;;;;;;;1.63;1.40;;;;;;;;;;4990148;28;20445;-86
2023/08/26 02:43:08;;;;;;;1.88;1.40;;;;;;;;;;4994968;28;20062;-86
2023/08/26 02:45:36;;;;;;;1.92;1.83;;;;;;;;;;4995322;28;20050;-87
2023/08/26 02:48:03;;;;;;;1.55;1.45;;;;;;;;;;4995494;28;20468;-86
2023/08/26 02:50:32;;;;;;;3.35;2.20;;;;;;;;;;4990716;28;20111;-87
2023/08/26 02:52:59;;;;;;;2.58;1.70;;;;;;;;;;4995283;28;20046;-87
2023/08/26 02:55:27;;;;;;;3.50;1.90;;;;;;;;;;4995423;28;20053;-87
2023/08/26 02:57:54;;;;;;;4.80;2.10;;;;;;;;;;4995339;28;20570;-86
2023/08/26 03:00:21;;;;;;;3.92;2.38;;;;;;;;;;4988579;28;20046;-87
2023/08/26 03:02:49;;;;;;;2.88;2.40;;;;;;;;;;4994312;28;20111;-86
2023/08/26 03:05:18;;;;;;;2.50;2.30;;;;;;;;;;4992687;28;20053;-87
2023/08/26 03:07:46;;;;;;;4.72;2.40;;;;;;;;;;4995102;28;20053;-87
2023/08/26 03:10:13;;;;;;;5.80;2.83;;;;;;;;;;4995858;28;20077;-86
2023/08/26 03:12:40;;;;;;;6.93;4.45;;;;;;;;;;4998381;28;20045;-85
2023/08/26 03:15:08;;;;;;;7.53;3.42;;;;;;;;;;4998407;28;20046;-86
2023/08/26 03:17:35;;;;;;;9.90;3.77;;;;;;;;;;4998036;28;20081;-87
2023/08/26 03:20:03;;;;;;;7.70;6.90;;;;;;;;;;4995344;28;20453;-86
2023/08/26 03:22:30;;;;;;;7.95;7.25;;;;;;;;;;4998121;28;20041;-87
2023/08/26 03:24:58;;;;;;;9.63;7.05;;;;;;;;;;4998590;28;20111;-87
2023/08/26 03:27:25;;;;;;;9.55;6.88;;;;;;;;;;4998068;28;20062;-86
2023/08/26 03:29:52;;;;;;;11.02;6.90;;;;;;;;;;4995028;28;20111;-86
2023/08/26 03:32:19;;;;;;;8.90;5.03;;;;;;;;;;4998252;28;20057;-87
2023/08/26 03:34:47;;;;;;;7.22;5.22;;;;;;;;;;4996374;28;20046;-88
2023/08/26 03:37:14;;;;;;;6.18;4.78;;;;;;;;;;4998037;28;20453;-87
2023/08/26 03:39:41;;;;;;;5.18;4.63;;;;;;;;;;4994770;28;20127;-87
2023/08/26 03:42:09;;;;;;;6.50;4.85;;;;;;;;;;4998311;28;20061;-88
2023/08/26 03:44:39;;;;;;;7.13;5.35;;;;;;;;;;4998669;28;20053;-87
2023/08/26 03:47:06;;;;;;;7.43;4.93;;;;;;;;;;4998559;28;20049;-88
2023/08/26 03:49:33;;;;;;;6.18;5.32;;;;;;;;;;4995092;28;20117;-87
2023/08/26 03:52:00;;;;;;;5.57;5.07;;;;;;;;;;4975311;28;20558;-86
2023/08/26 03:54:27;;;;;;;8.55;5.68;;;;;;;;;;4959061;28;20058;-86
2023/08/26 03:56:57;;;;;;;7.30;6.13;;;;;;;;;;4959287;28;20054;-87
2023/08/26 03:59:25;;;;;;;7.93;6.18;;;;;;;;;;4959437;28;20129;-88
2023/08/26 04:01:52;;;;;;;16.88;8.43;;;;;;;;;;4996601;28;20410;-88
2023/08/26 04:04:19;;;;;;;12.23;9.00;;;;;;;;;;4998279;28;20061;-89
2023/08/26 04:06:46;;;;;;;14.57;9.75;;;;;;;;;;4994583;28;20497;-89
2023/08/26 04:09:14;;;;;;;15.43;10.10;;;;;;;;;;4998218;28;20072;-90
2023/08/26 04:11:42;;;;;;;14.75;10.10;;;;;;;;;;4995148;28;20128;-89
2023/08/26 04:14:09;;;;;;;17.48;10.82;;;;;;;;;;4997899;28;20052;-90
2023/08/26 04:16:37;;;;;;;17.52;10.60;;;;;;;;;;4997865;28;20363;-90
2023/08/26 04:19:04;;;;;;;15.70;9.98;;;;;;;;;;4997603;28;20050;-90
2023/08/26 04:21:32;;;;;;;11.30;10.00;;;;;;;;;;4994951;28;20088;-90
2023/08/26 04:23:59;;;;;;;14.10;10.57;;;;;;;;;;4998101;28;20050;-90
2023/08/26 04:26:26;;;;;;;9.77;8.48;;;;;;;;;;4997920;28;20050;-90
2023/08/26 04:28:54;;;;;;;14.02;9.18;;;;;;;;;;4998106;28;20053;-89
2023/08/26 04:31:22;;;;;;;16.23;9.30;;;;;;;;;;4994588;28;20041;-90
2023/08/26 04:33:49;;;;;;;10.27;9.18;;;;;;;;;;4997881;28;20123;-89
2023/08/26 04:36:17;;;;;;;9.15;7.72;;;;;;;;;;4995955;28;20137;-90
2023/08/26 04:38:45;;;;;;;10.13;7.95;;;;;;;;;;4997640;28;20050;-90
2023/08/26 04:41:12;;;;;;;13.23;9.38;;;;;;;;;;4991368;28;20042;-90
2023/08/26 04:43:40;;;;;;;14.82;9.82;;;;;;;;;;4997487;28;20081;-90
2023/08/26 04:46:08;;;;;;;9.85;8.75;;;;;;;;;;4997634;28;20104;-90
2023/08/26 04:48:35;;;;;;;13.23;10.60;;;;;;;;;;4997854;28;20053;-89
2023/08/26 04:51:04;;;;;;;9.55;8.55;;;;;;;;;;4990946;28;20072;-89
2023/08/26 04:53:31;;;;;;;11.65;9.77;;;;;;;;;;4997361;28;20513;-88
2023/08/26 04:55:58;;;;;;;12.77;9.93;;;;;;;;;;4997192;28;20136;-89
2023/08/26 04:58:30;;;;;;;21.52;10.30;;;;;;;;;;4997932;28;20070;-89
2023/08/26 05:00:59;;;;;;;15.68;10.35;;;;;;;;;;4995595;28;20560;-89
2023/08/26 05:03:26;;;;;;;16.33;11.05;;;;;;;;;;4997494;28;20478;-89
2023/08/26 05:05:54;;;;;;;19.75;11.10;;;;;;;;;;4994763;28;20050;-89
2023/08/26 05:08:21;;;;;;;13.13;9.57;;;;;;;;;;4997166;28;20054;-88
2023/08/26 05:10:51;;;;;;;16.15;10.15;;;;;;;;;;4994609;28;20065;-89
2023/08/26 05:13:18;;;;;;;14.60;10.40;;;;;;;;;;4998043;28;20080;-89
2023/08/26 05:15:46;;;;;;;18.23;11.23;;;;;;;;;;5000975;28;20072;-88
2023/08/26 05:18:15;;;;;;;31.52;10.75;;;;;;;;;;5007362;28;20054;-89
2023/08/26 05:20:43;;;;;;;28.90;11.02;;;;;;;;;;4996165;28;20077;-89
2023/08/26 05:23:12;;;;;;;28.60;11.93;;;;;;;;;;4989864;28;20050;-89
2023/08/26 05:25:39;;;;;;;19.35;10.70;;;;;;;;;;4958215;28;20554;-89
2023/08/26 05:28:07;;;;;;;15.43;10.25;;;;;;;;;;4967589;28;20479;-89
2023/08/26 05:30:34;;;;;;;14.13;9.43;;;;;;;;;;4976521;28;20078;-89
2023/08/26 05:33:01;;;;;;;18.38;11.02;;;;;;;;;;4976904;28;20058;-89
2023/08/26 05:35:29;;;;;;;18.77;11.55;;;;;;;;;;4975558;28;20058;-89
2023/08/26 05:37:56;;;;;;;20.98;10.82;;;;;;;;;;4977319;28;20121;-89
2023/08/26 05:40:26;;;;;;;17.55;10.35;;;;;;;;;;4977184;28;20054;-89
2023/08/26 05:42:55;;;;;;;16.42;10.80;;;;;;;;;;4976438;28;20062;-88
2023/08/26 05:45:23;;;;;;;12.68;9.50;;;;;;;;;;4979948;28;20050;-88
2023/08/26 05:47:51;;;;;;;17.55;10.30;;;;;;;;;;4976379;28;20050;-88
2023/08/26 05:50:19;;;;;;;18.80;8.27;;;;;;;;;;4993117;28;20054;-89
2023/08/26 05:52:46;;;;;;;9.35;8.45;;;;;;;;;;4975545;28;20053;-89
2023/08/26 05:55:14;;;;;;;10.35;7.18;;;;;;;;;;4959282;28;20109;-89
2023/08/26 05:57:42;;;;;;;6.60;5.63;;;;;;;;;;4957754;28;20055;-88
2023/08/26 06:00:09;;;;;;;7.45;6.00;;;;;;;;;;4957207;28;20065;-88
2023/08/26 06:02:37;;;;;;;6.35;5.10;;;;;;;;;;4966786;28;20108;-87
2023/08/26 06:05:05;;;;;;;6.47;5.57;;;;;;;;;;4983137;28;20054;-88
2023/08/26 06:07:32;;;;;;;6.60;4.97;;;;;;;;;;4975664;28;20050;-89
2023/08/26 06:09:59;;;;;;;6.97;4.60;;;;;;;;;;4976998;28;20138;-88
2023/08/26 06:12:26;;;;;;;4.45;4.05;;;;;;;;;;4976454;28;20498;-88
2023/08/26 06:14:54;;;;;;;5.10;4.18;;;;;;;;;;4992707;28;20062;-89
2023/08/26 06:17:21;;;;;;;4.70;3.72;;;;;;;;;;4976762;28;20614;-88
2023/08/26 06:19:48;;;;;;;3.60;3.30;;;;;;;;;;4975116;28;20058;-89
2023/08/26 06:22:15;;;;;;;5.70;3.28;;;;;;;;;;4976437;28;20096;-89
2023/08/26 06:24:43;;;;;;;4.55;2.83;;;;;;;;;;4992830;28;20073;-88
2023/08/26 06:27:10;;;;;;;3.65;2.90;;;;;;;;;;4983112;28;20059;-87
2023/08/26 06:29:43;;;;;;;7.43;2.97;;;;;;;;;;4976410;28;20120;-87
2023/08/26 06:32:11;;;;;;;2.90;2.58;;;;;;;;;;4976217;28;20475;-90
2023/08/26 06:34:38;;;;;;;6.10;2.97;;;;;;;;;;4992413;28;20050;-88
2023/08/26 06:37:05;;;;;;;4.25;2.97;;;;;;;;;;4976947;28;20105;-88
2023/08/26 06:39:32;;;;;;;3.65;2.50;;;;;;;;;;4957313;28;20051;-90
2023/08/26 06:42:00;;;;;;;4.60;2.65;;;;;;;;;;4984220;28;20475;-88
2023/08/26 06:44:27;;;;;;;4.93;2.97;;;;;;;;;;4980129;28;20054;-88
2023/08/26 06:46:54;;;;;;;3.53;2.92;;;;;;;;;;4996313;28;20046;-88
2023/08/26 06:49:22;;;;;;;5.43;2.40;;;;;;;;;;4996171;28;20054;-86
2023/08/26 06:51:49;;;;;;;6.95;2.63;;;;;;;;;;4979115;28;20552;-88
2023/08/26 06:54:16;;;;;;;7.63;2.60;;;;;;;;;;4980438;28;20112;-88
2023/08/26 06:56:44;;;;;;;4.68;2.13;;;;;;;;;;4978283;28;20054;-88
2023/08/26 06:59:12;;;;;;;2.45;2.25;;;;;;;;;;4997350;28;20474;-88
2023/08/26 07:01:39;;;;;;;4.05;2.17;;;;;;;;;;4997111;28;20051;-88
2023/08/26 07:04:07;;;;;;;5.93;2.35;;;;;;;;;;4978879;28;20073;-88
2023/08/26 07:06:36;;;;;;;5.53;2.28;;;;;;;;;;4978272;28;20096;-88
2023/08/26 07:09:04;;;;;;;5.07;2.33;;;;;;;;;;4996856;28;20101;-88
2023/08/26 07:11:32;;;;;;;5.10;2.33;;;;;;;;;;4979692;28;20046;-88
2023/08/26 07:13:59;;;;;;;4.22;2.25;;;;;;;;;;4979849;28;20046;-88
2023/08/26 07:16:26;;;;;;;3.28;2.28;;;;;;;;;;4975456;28;20160;-87
2023/08/26 07:18:54;;;;;;;3.28;2.15;;;;;;;;;;4996158;28;22458;-88
2023/08/26 07:21:21;;;;;;;3.53;2.22;;;;;;;;;;4978577;28;20093;-88
2023/08/26 07:23:49;;;;;;;6.53;2.00;;;;;;;;;;4977916;28;20143;-88
2023/08/26 07:26:16;;;;;;;5.35;2.60;;;;;;;;;;4978681;28;20084;-88
2023/08/26 07:28:45;;;;;;;5.28;1.80;;;;;;;;;;4960050;28;20047;-88
2023/08/26 07:31:12;;;;;;;4.95;2.50;;;;;;;;;;4960274;28;20522;-88
2023/08/26 07:33:39;;;;;;;2.60;1.95;;;;;;;;;;4970359;28;20137;-90
2023/08/26 07:36:09;;;;;;;4.07;2.00;;;;;;;;;;4978803;28;20043;-88
2023/08/26 07:38:38;;;;;;;4.38;1.88;;;;;;;;;;4974545;28;20086;-88
2023/08/26 07:41:06;;;;;;;5.90;2.53;;;;;;;;;;4979426;28;20051;-92
2023/08/26 07:43:33;;;;;;;3.47;2.05;;;;;;;;;;4996534;28;20101;-92
2023/08/26 07:46:01;;;;;;;2.53;1.90;;;;;;;;;;4977221;28;20457;-88
2023/08/26 07:48:31;;;;;;;3.63;1.60;;;;;;;;;;4978280;28;20097;-90
2023/08/26 07:51:01;;;;;;;4.53;1.90;;;;;;;;;;4977144;28;20527;-90
2023/08/26 07:53:30;;;;;;;3.03;1.48;;;;;;;;;;4978353;28;20413;-93
2023/08/26 07:55:57;;;;;;;4.25;1.65;;;;;;;;;;4970205;28;20057;-90
2023/08/26 07:58:25;;;;;;;7.97;2.38;;;;;;;;;;4977954;28;20541;-88
2023/08/26 08:00:52;;;;;;;5.80;2.25;;;;;;;;;;4979767;28;20078;-89
2023/08/26 08:03:19;;;;;;;5.35;1.88;;;;;;;;;;4995211;28;20042;-89
2023/08/26 08:05:47;;;;;;;3.97;1.65;;;;;;;;;;4997287;28;20050;-94
2023/08/26 08:08:14;;;;;;;6.43;2.25;;;;;;;;;;4989559;28;20093;-91
2023/08/26 08:10:42;;;;;;;8.07;1.85;;;;;;;;;;4984435;28;20060;-91
2023/08/26 08:13:11;;;;;;;4.55;1.70;;;;;;;;;;4979564;28;20053;-90
2023/08/26 08:15:38;;;;;;;3.90;1.80;;;;;;;;;;4995943;28;20108;-91
2023/08/26 08:18:09;;;;;;;3.95;2.15;;;;;;;;;;4979539;28;20042;-90
2023/08/26 08:20:36;;;;;;;3.80;1.75;;;;;;;;;;4996670;28;20058;-92
2023/08/26 08:23:05;;;;;;;3.92;1.65;;;;;;;;;;4979476;28;20062;-92
2023/08/26 08:25:33;;;;;;;7.80;2.08;;;;;;;;;;4996173;28;20058;-94
2023/08/26 08:28:02;;;;;;;4.80;2.03;;;;;;;;;;4978678;28;20069;-92
2023/08/26 08:30:29;;;;;;;7.30;2.15;;;;;;;;;;4996383;28;20047;-91
2023/08/26 08:32:56;;;;;;;4.85;2.05;;;;;;;;;;4977870;28;20046;-89
2023/08/26 08:35:24;;;;;;;2.65;1.90;;;;;;;;;;4977123;28;20142;-91
2023/08/26 08:37:52;;;;;;;11.60;1.92;;;;;;;;;;4977825;28;20046;-91
2023/08/26 08:40:19;;;;;;;5.05;1.92;;;;;;;;;;4978060;28;20062;-92
2023/08/26 08:42:47;;;;;;;6.35;1.95;;;;;;;;;;4978076;28;20513;-90
2023/08/26 08:45:15;;;;;;;4.10;2.13;;;;;;;;;;4977456;28;20042;-91
2023/08/26 08:47:43;;;;;;;8.55;2.05;;;;;;;;;;4977381;28;20050;-89
2023/08/26 08:50:10;;;;;;;4.45;1.70;;;;;;;;;;4977165;28;20058;-91
2023/08/26 08:52:40;;;;;;;7.68;1.73;;;;;;;;;;4993885;28;20061;-89
2023/08/26 08:55:07;;;;;;;5.38;1.70;;;;;;;;;;4977978;28;20081;-93
2023/08/26 08:57:35;;;;;;;3.38;2.05;;;;;;;;;;4978629;28;20042;-92
2023/08/26 09:00:03;;;;;;;4.68;1.70;;;;;;;;;;4977945;28;20108;-91
2023/08/26 09:02:37;;;;;;;2.75;2.35;;;;;;;;;;4977963;28;20046;-91
2023/08/26 09:05:04;;;;;;;7.88;2.00;;;;;;;;;;4994410;28;20046;-93
2023/08/26 09:07:32;;;;;;;5.07;2.20;;;;;;;;;;4976453;28;20046;-93
2023/08/26 09:10:00;;;;;;;6.55;2.08;;;;;;;;;;4978143;28;20046;-89
2023/08/26 09:12:32;;;;;;;7.93;1.85;;;;;;;;;;4977765;28;20557;-93
2023/08/26 09:14:59;;;;;;;6.20;1.80;;;;;;;;;;4976534;28;20043;-92
2023/08/26 09:17:28;;;;;;;4.28;1.88;;;;;;;;;;4976324;28;20042;-89
2023/08/26 09:19:58;;;;;;;9.38;3.38;;;;;;;;;;4977368;28;20047;-93
2023/08/26 09:22:29;;;;;;;6.10;2.00;;;;;;;;;;4977599;28;20050;-93
2023/08/26 09:24:57;;;;;;;3.90;1.20;;;;;;;;;;4976811;28;20065;-93
2023/08/26 09:27:24;;;;;;;3.53;1.52;;;;;;;;;;4991674;28;20046;-88
2023/08/26 09:29:55;;;;;;;5.63;1.60;;;;;;;;;;4977166;28;20042;-92
2023/08/26 09:32:36;;;;;;;13.32;3.97;;;;;;;;;;4973234;28;20101;-92
2023/08/26 09:35:10;;;;;;;8.70;5.38;;;;;;;;;;4993100;28;20058;-91
2023/08/26 09:37:38;;;;;;;7.05;2.80;;;;;;;;;;4976607;28;20388;-91
2023/08/26 09:40:06;;;;;;;6.72;2.40;;;;;;;;;;4977189;28;20104;-93
2023/08/26 09:42:34;;;;;;;6.65;2.40;;;;;;;;;;4978060;28;20426;-92
2023/08/26 09:45:03;;;;;;;5.70;2.67;;;;;;;;;;4993661;28;20050;-91
2023/08/26 09:47:36;;;;;;;7.28;1.90;;;;;;;;;;4977223;28;20050;-91
2023/08/26 09:50:04;;;;;;;3.78;1.70;;;;;;;;;;4977409;28;20081;-92
2023/08/26 09:52:41;;;;;;;5.15;1.73;;;;;;;;;;4976629;28;20478;-90
2023/08/26 09:55:09;;;;;;;8.48;2.20;;;;;;;;;;4976900;28;20133;-88
2023/08/26 09:57:37;;;;;;;6.47;2.13;;;;;;;;;;4976855;28;20054;-90
2023/08/26 10:00:08;;;;;;;6.10;1.73;;;;;;;;;;4976053;28;20051;-89
2023/08/26 10:02:37;;;;;;;6.13;1.75;;;;;;;;;;4977698;28;20054;-92
2023/08/26 10:05:10;;;;;;;4.47;1.88;;;;;;;;;;4977088;28;20047;-91
2023/08/26 10:07:38;;;;;;;6.75;2.00;;;;;;;;;;4975502;28;20078;-90
2023/08/26 10:10:14;;;;;;;9.95;1.88;;;;;;;;;;4976046;28;20069;-92
2023/08/26 10:12:42;;;;;;;5.40;1.63;;;;;;;;;;4976940;28;20406;-93
2023/08/26 10:15:14;;;;;;;4.82;1.80;;;;;;;;;;4977323;28;20069;-93
2023/08/26 10:17:44;;;;;;;6.30;1.98;;;;;;;;;;4978097;28;20085;-93
2023/08/26 10:20:12;;;;;;;4.18;1.65;;;;;;;;;;4981149;28;20490;-94
2023/08/26 10:22:39;;;;;;;7.18;1.73;;;;;;;;;;4981222;28;20490;-96
2023/08/26 10:25:08;;;;;;;9.35;2.10;;;;;;;;;;4982246;28;20054;-90
2023/08/26 10:27:37;;;;;;;5.47;1.63;;;;;;;;;;4980414;28;20065;-95
2023/08/26 10:30:06;;;;;;;7.35;2.10;;;;;;;;;;4982699;28;20058;-96
2023/08/26 10:32:42;;;;;;;5.53;1.83;;;;;;;;;;4984978;28;20054;-92
2023/08/26 10:35:12;;;;;;;4.47;2.05;;;;;;;;;;4984663;28;20128;-91
2023/08/26 10:37:40;;;;;;;5.82;1.67;;;;;;;;;;4976753;28;20396;-92
2023/08/26 10:40:14;;;;;;;7.07;1.85;;;;;;;;;;4962635;28;20047;-94
2023/08/26 10:43:00;;;;;;;8.50;2.08;;;;;;;;;;4961736;28;20062;-89
2023/08/26 10:45:28;;;;;;;6.35;1.50;;;;;;;;;;4969961;28;20078;-93
2023/08/26 10:47:55;;;;;;;11.88;2.08;;;;;;;;;;4982716;28;20058;-96
2023/08/26 10:50:25;;;;;;;3.85;1.90;;;;;;;;;;4981948;28;20061;-93
2023/08/26 10:52:53;;;;;;;6.80;2.15;;;;;;;;;;4982433;28;20056;-89
2023/08/26 10:55:22;;;;;;;6.60;1.95;;;;;;;;;;4990687;28;20077;-93
2023/08/26 10:58:15;;;;;;;4.22;1.60;;;;;;;;;;4989565;28;20112;-93
2023/08/26 11:00:44;;;;;;;3.28;1.35;;;;;;;;;;4981542;28;20404;-92
2023/08/26 11:03:11;;;;;;;6.15;1.65;;;;;;;;;;4984517;28;20050;-96
2023/08/26 11:05:41;;;;;;;4.88;1.58;;;;;;;;;;4984810;28;20061;-96
2023/08/26 11:08:08;;;;;;;7.10;1.98;;;;;;;;;;4981079;28;20069;-96
2023/08/26 11:10:39;;;;;;;9.70;1.85;;;;;;;;;;4982659;28;20124;-96
2023/08/26 11:13:07;;;;;;;6.65;1.80;;;;;;;;;;4983799;28;20483;-94
2023/08/26 11:15:38;;;;;;;4.38;1.55;;;;;;;;;;4980564;28;20647;-90
2023/08/26 11:18:07;;;;;;;7.45;2.50;;;;;;;;;;4977332;28;20129;-90
2023/08/26 11:20:35;;;;;;;5.22;1.50;;;;;;;;;;4963132;28;20418;-94
2023/08/26 11:23:05;;;;;;;5.20;1.80;;;;;;;;;;4963012;28;20046;-95
2023/08/26 11:25:41;;;;;;;4.80;1.83;;;;;;;;;;4962872;28;20062;-96
2023/08/26 11:28:10;;;;;;;7.68;1.80;;;;;;;;;;4979142;28;20046;-95
2023/08/26 11:30:41;;;;;;;6.28;2.22;;;;;;;;;;4978474;28;20054;-95
2023/08/26 11:33:10;;;;;;;6.80;2.33;;;;;;;;;;4979577;28;20234;-91
2023/08/26 11:35:39;;;;;;;8.38;2.17;;;;;;;;;;4980671;28;20054;-96
2023/08/26 11:38:09;;;;;;;6.30;1.70;;;;;;;;;;4979379;28;20050;-96
2023/08/26 11:40:37;;;;;;;2.50;1.40;;;;;;;;;;4979629;28;20050;-93
2023/08/26 11:43:07;;;;;;;3.08;1.55;;;;;;;;;;4979274;28;20145;-91
2023/08/26 11:45:38;;;;;;;4.07;1.80;;;;;;;;;;4995574;28;20118;-94
2023/08/26 11:48:07;;;;;;;8.95;2.00;;;;;;;;;;4984151;28;20042;-96
2023/08/26 11:50:35;;;;;;;10.23;2.28;;;;;;;;;;4998528;28;20088;-93
2023/08/26 11:53:03;;;;;;;5.72;1.63;;;;;;;;;;4996135;28;20054;-94
2023/08/26 11:55:33;;;;;;;5.03;1.90;;;;;;;;;;5000440;28;20074;-89
2023/08/26 11:58:01;;;;;;;4.00;1.50;;;;;;;;;;4981169;28;20061;-94
2023/08/26 12:00:29;;;;;;;4.88;1.95;;;;;;;;;;4979877;28;20077;-93
2023/08/26 12:03:00;;;;;;;5.93;1.67;;;;;;;;;;4995726;28;20057;-94
2023/08/26 12:05:28;;;;;;;3.05;1.60;;;;;;;;;;4996297;28;20050;-94
2023/08/26 12:07:56;;;;;;;5.88;1.95;;;;;;;;;;4989765;28;20046;-92
2023/08/26 12:10:25;;;;;;;4.65;1.85;;;;;;;;;;4995825;28;20058;-92
2023/08/26 12:13:01;;;;;;;5.10;1.77;;;;;;;;;;4983370;28;20383;-94
2023/08/26 12:15:29;;;;;;;4.05;1.63;;;;;;;;;;4995195;28;20458;-94
2023/08/26 12:17:57;;;;;;;4.05;2.00;;;;;;;;;;4986416;28;20446;-94
2023/08/26 12:20:28;;;;;;;6.40;1.88;;;;;;;;;;4977744;28;20073;-96
2023/08/26 12:23:00;;;;;;;1.88;1.40;;;;;;;;;;4979615;28;20054;-93
2023/08/26 12:25:30;;;;;;;2.70;1.42;;;;;;;;;;4977550;28;20047;-91
2023/08/26 12:28:12;;;;;;;7.35;1.70;;;;;;;;;;4978171;28;20050;-93
2023/08/26 12:30:43;;;;;;;1.95;1.40;;;;;;;;;;4978441;28;20104;-91
2023/08/26 12:33:11;;;;;;;6.35;2.10;;;;;;;;;;4991243;28;20376;-93
2023/08/26 12:35:53;;;;;;;4.25;1.65;;;;;;;;;;4970563;28;20054;-95
2023/08/26 12:38:22;;;;;;;5.20;1.73;;;;;;;;;;4979575;28;20109;-91
2023/08/26 12:40:50;;;;;;;2.05;1.33;;;;;;;;;;4979069;28;20101;-94
2023/08/26 12:43:21;;;;;;;7.43;1.80;;;;;;;;;;4980548;28;20078;-92
2023/08/26 12:45:49;;;;;;;7.03;1.83;;;;;;;;;;4979863;28;20050;-92
2023/08/26 12:48:17;;;;;;;6.25;1.70;;;;;;;;;;4978797;28;20076;-95
2023/08/26 12:51:08;;;;;;;7.93;1.83;;;;;;;;;;4981529;28;20097;-94
2023/08/26 12:53:37;;;;;;;2.58;1.60;;;;;;;;;;4979418;28;20050;-94
2023/08/26 12:56:04;;;;;;;7.55;1.70;;;;;;;;;;4996705;28;20100;-96
2023/08/26 12:58:32;;;;;;;22.52;3.30;;;;;;;;;;4980336;28;20054;-94
2023/08/26 13:01:00;;;;;;;4.45;1.52;;;;;;;;;;4979483;28;20057;-95
2023/08/26 13:03:27;;;;;;;2.78;1.40;;;;;;;;;;4980658;28;20079;-95
2023/08/26 13:05:57;;;;;;;7.88;1.83;;;;;;;;;;4978315;28;20050;-93
2023/08/26 13:08:25;;;;;;;6.15;1.67;;;;;;;;;;4978125;28;20070;-93
2023/08/26 13:10:53;;;;;;;4.22;2.00;;;;;;;;;;4977706;28;20077;-94
2023/08/26 13:13:21;;;;;;;5.47;1.75;;;;;;;;;;4978943;28;20050;-94
2023/08/26 13:15:48;;;;;;;8.60;1.52;;;;;;;;;;4978906;28;20054;-92
2023/08/26 13:18:15;;;;;;;4.43;1.75;;;;;;;;;;4995449;28;20054;-95
2023/08/26 13:20:43;;;;;;;3.40;1.85;;;;;;;;;;4977281;28;20042;-94
2023/08/26 13:23:10;;;;;;;5.15;1.52;;;;;;;;;;4977653;28;20116;-93
2023/08/26 13:25:38;;;;;;;3.30;1.45;;;;;;;;;;4977763;28;20133;-94
2023/08/26 13:28:06;;;;;;;5.90;1.73;;;;;;;;;;4994846;28;20466;-96
2023/08/26 13:30:34;;;;;;;3.88;1.52;;;;;;;;;;4977668;28;20054;-90
2023/08/26 13:33:03;;;;;;;3.17;1.42;;;;;;;;;;4977759;28;20065;-93
2023/08/26 13:35:31;;;;;;;5.38;1.40;;;;;;;;;;4978369;28;20077;-93
2023/08/26 13:37:58;;;;;;;5.45;1.95;;;;;;;;;;4977877;28;20069;-91
2023/08/26 13:40:26;;;;;;;3.47;1.13;;;;;;;;;;4978483;28;20081;-90
2023/08/26 13:42:55;;;;;;;2.15;1.60;;;;;;;;;;4992177;28;20058;-89
2023/08/26 13:45:22;;;;;;;2.38;1.42;;;;;;;;;;4988928;28;20506;-92
2023/08/26 13:47:50;;;;;;;9.77;1.85;;;;;;;;;;4999022;28;20109;-94
2023/08/26 13:50:17;;;;;;;5.25;1.40;;;;;;;;;;4977196;28;20046;-92
2023/08/26 13:52:45;;;;;;;2.20;1.33;;;;;;;;;;4977777;28;20141;-92
2023/08/26 13:55:15;;;;;;;6.95;1.80;;;;;;;;;;4978226;28;20083;-91
2023/08/26 13:57:43;;;;;;;3.30;1.20;;;;;;;;;;4977064;28;20054;-89
2023/08/26 14:00:11;;;;;;;6.53;1.60;;;;;;;;;;4978335;28;20054;-92
2023/08/26 14:02:38;;;;;;;12.38;9.85;;;;;;;;;;4976081;28;20074;-91
2023/08/26 14:05:07;;;;;;;5.70;3.80;;;;;;;;;;4977234;28;20046;-90
2023/08/26 14:07:34;;;;;;;2.97;1.60;;;;;;;;;;4977021;28;20054;-92
2023/08/26 14:10:02;;;;;;;8.52;1.90;;;;;;;;;;4977081;28;20053;-92
2023/08/26 14:12:29;;;;;;;4.65;1.58;;;;;;;;;;4976984;28;20054;-89
2023/08/26 14:14:56;;;;;;;2.45;1.45;;;;;;;;;;4976956;28;20050;-90
2023/08/26 14:17:23;;;;;;;4.60;1.75;;;;;;;;;;4977141;28;20065;-90
2023/08/26 14:19:51;;;;;;;1.73;1.60;;;;;;;;;;4977596;28;20101;-94
2023/08/26 14:22:18;;;;;;;3.13;1.45;;;;;;;;;;4976850;28;20118;-91
2023/08/26 14:24:48;;;;;;;5.28;1.70;;;;;;;;;;4975784;28;20053;-91
2023/08/26 14:27:18;;;;;;;3.60;1.40;;;;;;;;;;4976705;28;20499;-90
2023/08/26 14:29:46;;;;;;;4.82;1.73;;;;;;;;;;4976744;28;20054;-90
2023/08/26 14:32:13;;;;;;;2.33;1.48;;;;;;;;;;4977308;28;20093;-91
2023/08/26 14:34:40;;;;;;;4.03;1.70;;;;;;;;;;4977035;28;20051;-91
2023/08/26 14:37:07;;;;;;;6.15;1.80;;;;;;;;;;4977060;28;20133;-91
2023/08/26 14:39:39;;;;;;;7.72;1.98;;;;;;;;;;4976776;28;20058;-91
2023/08/26 14:42:06;;;;;;;3.95;1.50;;;;;;;;;;4976574;28;20058;-90
2023/08/26 14:44:34;;;;;;;3.55;1.65;;;;;;;;;;4977094;28;20502;-90
2023/08/26 14:47:01;;;;;;;4.35;1.73;;;;;;;;;;4976832;28;20054;-91